Time;durP1;ratioP1;P1;durP2;ratioP2;P2;SDS_P1;SDS_P2;PMS_P1;PMS_P2;Temp;Humidity;BMP_temperature;BMP_pressure;BME280_temperature;BME280_humidity;BME280_pressure;Samples;Min_cycle;Max_cycle;Signal;HPM_P1;HPM_P2
2022/12/06 00:01:16;;;;;;;18.17;7.37;;;;;;;4.79;100.00;98875.28;4469778;32;20084;-70
2022/12/06 00:03:45;;;;;;;17.85;7.57;;;;;;;4.78;100.00;98881.41;4469804;32;20136;-70
2022/12/06 00:06:15;;;;;;;20.92;8.60;;;;;;;4.77;100.00;98876.31;4467521;32;81627;-70
2022/12/06 00:08:42;;;;;;;14.35;6.78;;;;;;;4.76;100.00;98878.06;4475948;32;20489;-70
2022/12/06 00:11:12;;;;;;;15.13;6.95;;;;;;;4.72;100.00;98871.41;4485180;31;20096;-70
2022/12/06 00:13:40;;;;;;;14.98;6.57;;;;;;;4.67;100.00;98854.47;4485659;31;20454;-70
2022/12/06 00:16:11;;;;;;;15.05;6.85;;;;;;;4.61;100.00;98848.72;4485467;31;20092;-70
2022/12/06 00:18:40;;;;;;;12.40;6.57;;;;;;;4.66;100.00;98845.84;4485642;31;20089;-69
2022/12/06 00:21:15;;;;;;;17.33;7.18;;;;;;;4.59;100.00;98829.03;4477106;31;20168;-70
2022/12/06 00:23:45;;;;;;;15.82;6.28;;;;;;;4.60;100.00;98841.03;4469957;32;20084;-70
2022/12/06 00:26:13;;;;;;;12.15;6.03;;;;;;;4.55;100.00;98830.97;4469713;32;20446;-70
2022/12/06 00:28:40;;;;;;;15.13;7.00;;;;;;;4.49;100.00;98833.94;4469616;32;20180;-70
2022/12/06 00:31:16;;;;;;;22.80;8.15;;;;;;;4.39;100.00;98825.91;4469606;32;20120;-70
2022/12/06 00:33:43;;;;;;;15.88;5.80;;;;;;;4.39;100.00;98822.47;4469627;32;20556;-70
2022/12/06 00:36:13;;;;;;;20.12;7.05;;;;;;;4.36;100.00;98815.75;4469607;32;20356;-70
2022/12/06 00:38:40;;;;;;;18.20;7.50;;;;;;;4.36;100.00;98807.09;4470011;32;20167;-69
2022/12/06 00:41:13;;;;;;;12.15;5.93;;;;;;;4.39;100.00;98818.13;4469894;32;20176;-70
2022/12/06 00:43:41;;;;;;;13.23;6.77;;;;;;;4.46;100.00;98820.34;4470054;32;20435;-70
2022/12/06 00:46:11;;;;;;;17.35;6.75;;;;;;;4.46;100.00;98815.16;4469532;32;20188;-70
2022/12/06 00:48:38;;;;;;;21.73;8.05;;;;;;;4.28;100.00;98799.81;4469774;32;20135;-69
2022/12/06 00:51:06;;;;;;;17.80;6.80;;;;;;;4.25;100.00;98812.97;4469444;32;20205;-69
2022/12/06 00:53:33;;;;;;;16.52;5.95;;;;;;;4.29;100.00;98809.28;4469754;32;20160;-69
2022/12/06 00:56:00;;;;;;;16.05;7.00;;;;;;;4.36;100.00;98810.56;4469479;32;20089;-70
2022/12/06 00:58:27;;;;;;;11.75;4.95;;;;;;;4.30;100.00;98810.94;4469675;32;20151;-69
2022/12/06 01:00:54;;;;;;;14.15;5.97;;;;;;;4.33;100.00;98797.78;4469496;32;20092;-69
2022/12/06 01:03:22;;;;;;;13.85;5.97;;;;;;;4.25;100.00;98800.84;4469593;32;20157;-69
2022/12/06 01:05:50;;;;;;;12.80;5.90;;;;;;;4.26;100.00;98796.50;4469310;32;20120;-69
2022/12/06 01:08:18;;;;;;;8.02;5.15;;;;;;;4.28;100.00;98784.25;4473155;32;20134;-69
2022/12/06 01:10:53;;;;;;;14.00;5.25;;;;;;;4.24;100.00;98767.25;4485006;31;20096;-70
2022/12/06 01:13:20;;;;;;;17.05;6.60;;;;;;;4.19;100.00;98753.72;4485408;31;20107;-70
2022/12/06 01:15:47;;;;;;;12.82;5.95;;;;;;;4.13;100.00;98754.12;4484933;31;20164;-70
2022/12/06 01:18:15;;;;;;;13.73;6.62;;;;;;;4.13;100.00;98734.19;4485164;31;20109;-70
2022/12/06 01:20:42;;;;;;;16.60;6.53;;;;;;;4.14;100.00;98735.87;4479507;31;20088;-69
2022/12/06 01:23:09;;;;;;;15.35;7.45;;;;;;;4.14;100.00;98729.84;4468283;32;20464;-70
2022/12/06 01:25:36;;;;;;;18.77;8.23;;;;;;;4.19;100.00;98723.44;4469486;32;20101;-70
2022/12/06 01:28:04;;;;;;;21.48;8.18;;;;;;;4.15;100.00;98721.13;4469296;32;20123;-70
2022/12/06 01:30:31;;;;;;;19.23;8.75;;;;;;;4.20;100.00;98717.31;4469351;32;20144;-70
2022/12/06 01:32:58;;;;;;;14.87;7.28;;;;;;;4.11;100.00;98707.53;4469260;32;20096;-70
2022/12/06 01:35:25;;;;;;;17.50;7.87;;;;;;;4.08;100.00;98700.78;4469004;32;20143;-69
2022/12/06 01:37:52;;;;;;;15.35;7.32;;;;;;;3.95;100.00;98707.69;4469637;32;20442;-71
2022/12/06 01:40:19;;;;;;;16.48;7.62;;;;;;;4.02;100.00;98701.19;4469457;32;20135;-71
2022/12/06 01:42:47;;;;;;;16.00;6.57;;;;;;;4.05;100.00;98700.97;4469136;32;20097;-72
2022/12/06 01:45:14;;;;;;;17.87;7.60;;;;;;;4.03;100.00;98718.41;4469641;32;20136;-71
2022/12/06 01:47:42;;;;;;;21.65;7.62;;;;;;;4.09;100.00;98759.50;4469207;32;20111;-72
2022/12/06 01:50:19;;;;;;;21.48;7.95;;;;;;;4.09;100.00;98794.97;4469480;32;20119;-72
2022/12/06 01:52:54;;;;;;;21.58;7.32;;;;;;;4.11;100.00;98831.97;4467944;32;20387;-72
2022/12/06 01:55:24;;;;;;;13.15;6.87;;;;;;;4.16;100.00;98823.91;4468058;32;20525;-72
2022/12/06 01:57:53;;;;;;;22.15;7.75;;;;;;;4.12;100.00;98814.66;4467867;32;20439;-72
2022/12/06 02:00:20;;;;;;;20.08;7.97;;;;;;;4.07;100.00;98786.44;4467689;32;20124;-72
2022/12/06 02:02:47;;;;;;;20.65;8.35;;;;;;;4.15;100.00;98788.53;4469098;32;20150;-72
2022/12/06 02:05:16;;;;;;;17.20;7.95;;;;;;;4.15;100.00;98788.53;4468641;32;20089;-72
2022/12/06 02:07:44;;;;;;;19.37;8.60;;;;;;;4.09;100.00;98795.78;4469344;32;20497;-72
2022/12/06 02:10:11;;;;;;;28.38;10.15;;;;;;;3.96;100.00;98809.59;4483622;32;20175;-72
2022/12/06 02:12:38;;;;;;;15.63;7.80;;;;;;;3.90;100.00;98811.63;4484504;31;20172;-72
2022/12/06 02:15:06;;;;;;;17.33;7.75;;;;;;;3.87;100.00;98811.00;4484743;32;20139;-72
2022/12/06 02:17:43;;;;;;;17.27;7.97;;;;;;;3.89;100.00;98804.81;4484572;31;20084;-72
2022/12/06 02:20:26;;;;;;;13.45;6.37;;;;;;;4.00;100.00;98821.47;4481196;32;20143;-72
2022/12/06 02:23:22;;;;;;;14.15;6.53;;;;;;;4.07;100.00;98827.91;4467311;32;20577;-72
2022/12/06 02:26:08;;;;;;;15.23;6.47;;;;;;;4.08;100.00;98809.66;4468614;32;20111;-72
2022/12/06 02:28:56;;;;;;;16.98;6.43;;;;;;;4.14;100.00;98812.81;4468806;32;20429;-70
2022/12/06 02:31:31;;;;;;;15.77;7.07;;;;;;;4.19;100.00;98824.56;4467253;32;20114;-70
2022/12/06 02:34:00;;;;;;;12.27;5.72;;;;;;;4.08;100.00;98824.41;4467440;32;20163;-70
2022/12/06 02:36:37;;;;;;;11.05;5.35;;;;;;;4.03;100.00;98800.53;4470564;32;20110;-70
2022/12/06 02:39:11;;;;;;;14.82;6.35;;;;;;;3.93;100.00;98783.88;4469513;32;20186;-69
2022/12/06 02:41:43;;;;;;;10.65;5.62;;;;;;;4.03;100.00;98759.88;4470676;32;20151;-70
2022/12/06 02:44:27;;;;;;;11.38;5.55;;;;;;;4.08;100.00;98762.19;4469310;32;20127;-69
2022/12/06 02:46:54;;;;;;;18.53;6.67;;;;;;;4.13;100.00;98746.34;4469571;32;20112;-69
2022/12/06 02:49:24;;;;;;;12.75;5.82;;;;;;;4.13;100.00;98769.66;4469343;32;20261;-69
2022/12/06 02:51:53;;;;;;;14.68;6.05;;;;;;;4.00;100.00;98770.44;4469161;32;20097;-69
2022/12/06 02:54:21;;;;;;;12.43;5.87;;;;;;;4.05;100.00;98754.59;4469298;32;20446;-69
2022/12/06 02:56:48;;;;;;;12.80;6.10;;;;;;;4.09;100.00;98727.56;4468985;32;20160;-70
2022/12/06 02:59:15;;;;;;;17.75;6.70;;;;;;;4.01;100.00;98704.72;4470582;32;20156;-70
2022/12/06 03:01:49;;;;;;;19.75;6.72;;;;;;;3.99;100.00;98709.16;4470242;32;20131;-70
2022/12/06 03:04:30;;;;;;;17.75;7.45;;;;;;;4.00;100.00;98699.63;4469046;32;20142;-69
2022/12/06 03:07:35;;;;;;;18.77;6.97;;;;;;;3.89;100.00;98689.91;4469195;32;20432;-69
2022/12/06 03:10:36;;;;;;;16.25;7.07;;;;;;;3.89;100.00;98688.19;4485016;32;20122;-70
2022/12/06 03:13:28;;;;;;;12.43;5.68;;;;;;;3.91;100.00;98690.66;4485077;32;20134;-70
2022/12/06 03:15:59;;;;;;;12.57;5.80;;;;;;;3.96;100.00;98691.19;4486455;31;20099;-69
2022/12/06 03:18:36;;;;;;;16.83;7.60;;;;;;;3.96;100.00;98687.78;4486135;31;20076;-69
2022/12/06 03:21:07;;;;;;;17.10;6.68;;;;;;;3.85;100.00;98667.75;4478511;31;20390;-69
2022/12/06 03:23:41;;;;;;;13.10;5.62;;;;;;;3.86;100.00;98666.78;4468957;32;20418;-69
2022/12/06 03:26:10;;;;;;;14.68;5.90;;;;;;;3.87;100.00;98666.69;4470186;32;20561;-70
2022/12/06 03:28:38;;;;;;;22.25;6.78;;;;;;;3.77;100.00;98668.22;4468827;32;20101;-69
2022/12/06 03:31:11;;;;;;;14.38;6.20;;;;;;;3.80;100.00;98680.13;4468900;32;20510;-69
2022/12/06 03:33:47;;;;;;;18.45;7.72;;;;;;;3.81;100.00;98674.03;4470099;32;20188;-69
2022/12/06 03:36:16;;;;;;;14.00;6.43;;;;;;;3.75;100.00;98664.88;4470257;32;20460;-69
2022/12/06 03:38:49;;;;;;;18.52;6.53;;;;;;;3.75;100.00;98684.78;4468860;32;20160;-69
2022/12/06 03:41:18;;;;;;;16.70;6.68;;;;;;;3.77;100.00;98659.59;4468957;32;20524;-70
2022/12/06 03:43:45;;;;;;;16.12;6.50;;;;;;;3.71;100.00;98666.84;4468888;32;20139;-71
2022/12/06 03:46:19;;;;;;;17.42;6.93;;;;;;;3.72;100.00;98667.66;4469319;32;20093;-71
2022/12/06 03:48:53;;;;;;;17.10;6.25;;;;;;;3.73;100.00;98657.22;4468814;32;20139;-72
2022/12/06 03:51:25;;;;;;;17.30;7.07;;;;;;;3.78;100.00;98661.28;4468655;32;20187;-71
2022/12/06 03:53:56;;;;;;;16.30;6.60;;;;;;;3.75;100.00;98661.47;4468853;32;20116;-71
2022/12/06 03:56:23;;;;;;;17.30;7.07;;;;;;;3.70;100.00;98661.75;4468499;32;20080;-72
2022/12/06 03:58:50;;;;;;;21.67;7.03;;;;;;;3.68;100.00;98664.44;4469876;32;20097;-72
2022/12/06 04:01:18;;;;;;;18.70;7.55;;;;;;;3.68;100.00;98671.38;4470309;32;20162;-71
2022/12/06 04:03:45;;;;;;;21.35;8.30;;;;;;;3.73;100.00;98700.44;4469696;32;20613;-71
2022/12/06 04:06:13;;;;;;;17.25;6.55;;;;;;;3.68;100.00;98749.09;4470143;32;20092;-72
2022/12/06 04:08:40;;;;;;;14.82;7.65;;;;;;;3.58;100.00;98748.84;4475441;32;20104;-72
2022/12/06 04:11:07;;;;;;;17.75;7.60;;;;;;;3.63;100.00;98735.59;4485586;31;20100;-70
2022/12/06 04:13:34;;;;;;;15.38;6.70;;;;;;;3.75;100.00;98755.56;4485412;32;20420;-70
2022/12/06 04:16:02;;;;;;;15.80;7.00;;;;;;;3.75;100.00;98744.37;4485419;32;20125;-70
2022/12/06 04:18:29;;;;;;;15.75;7.57;;;;;;;3.87;100.00;98753.97;4485528;32;20119;-70
2022/12/06 04:23:50;;;;;;;14.15;6.62;;;;;;;3.78;100.00;98732.06;4469837;32;20137;-70
2022/12/06 04:26:19;;;;;;;15.90;6.97;;;;;;;3.88;100.00;98751.28;4469639;32;20114;-70
2022/12/06 04:39:53;;;;;;;15.65;7.85;;;;;;;4.14;100.00;98720.31;4469949;32;20105;-70
2022/12/06 04:45:06;;;;;;;15.57;6.50;;;;;;;4.27;100.00;98735.94;4470044;32;20503;-70
2022/12/06 04:47:33;;;;;;;11.57;6.57;;;;;;;4.14;100.00;98730.69;4469760;32;20156;-70
2022/12/06 04:50:00;;;;;;;16.27;7.75;;;;;;;4.21;100.00;98731.97;4469499;32;20109;-70
2022/12/06 04:52:28;;;;;;;13.95;7.35;;;;;;;4.21;100.00;98731.09;4469706;32;20084;-70
2022/12/06 04:55:02;;;;;;;19.12;7.80;;;;;;;4.24;100.00;98717.97;4469711;32;20540;-70
2022/12/06 04:57:30;;;;;;;13.02;6.75;;;;;;;4.25;100.00;98717.03;4469337;32;20607;-70
2022/12/06 04:59:57;;;;;;;15.05;7.15;;;;;;;4.33;100.00;98706.16;4469782;32;20114;-70
2022/12/06 05:02:24;;;;;;;12.23;6.60;;;;;;;4.34;100.00;98713.84;4469572;32;20484;-70
2022/12/06 05:04:52;;;;;;;12.98;6.68;;;;;;;4.27;100.00;98715.19;4469089;32;20457;-70
2022/12/06 05:07:19;;;;;;;13.32;6.70;;;;;;;4.28;100.00;98727.19;4469141;32;20148;-69
2022/12/06 05:09:46;;;;;;;14.75;7.18;;;;;;;4.23;100.00;98718.91;4482274;32;20103;-70
2022/12/06 05:12:13;;;;;;;16.40;7.37;;;;;;;4.26;100.00;98710.94;4485230;32;20134;-70
2022/12/06 05:14:40;;;;;;;15.07;7.50;;;;;;;4.39;100.00;98710.94;4484520;32;20096;-70
2022/12/06 05:17:07;;;;;;;20.27;7.85;;;;;;;4.38;100.00;98717.91;4484679;32;20097;-72
2022/12/06 05:19:34;;;;;;;16.12;8.32;;;;;;;4.28;100.00;98722.03;4483492;31;20816;-72
2022/12/06 05:22:01;;;;;;;19.50;8.48;;;;;;;4.24;100.00;98734.34;4468773;32;20506;-72
2022/12/06 05:24:29;;;;;;;17.50;9.60;;;;;;;4.19;100.00;98727.78;4468901;32;20109;-72
2022/12/06 05:26:56;;;;;;;17.52;8.48;;;;;;;4.14;100.00;98719.50;4469290;32;20107;-72
2022/12/06 05:29:23;;;;;;;16.52;8.48;;;;;;;4.22;100.00;98712.91;4469133;32;20144;-72
2022/12/06 05:31:50;;;;;;;22.33;9.00;;;;;;;4.07;100.00;98706.91;4469387;32;20608;-72
2022/12/06 05:34:17;;;;;;;18.50;8.23;;;;;;;4.11;100.00;98709.31;4469081;32;20112;-72
2022/12/06 05:36:44;;;;;;;17.90;7.97;;;;;;;3.99;100.00;98706.56;4468996;32;20115;-72
2022/12/06 05:39:12;;;;;;;18.45;8.48;;;;;;;4.01;100.00;98717.69;4468784;32;20096;-71
2022/12/06 05:41:39;;;;;;;20.15;8.43;;;;;;;4.04;100.00;98717.50;4476558;32;20207;-70
2022/12/06 05:44:06;;;;;;;14.98;7.55;;;;;;;4.08;100.00;98728.47;4472922;31;20398;-70
2022/12/06 05:46:33;;;;;;;18.92;9.35;;;;;;;4.05;100.00;98737.28;4476103;32;20142;-70
2022/12/06 05:49:00;;;;;;;15.60;7.10;;;;;;;4.13;100.00;98728.19;4480181;32;21425;-70
2022/12/06 05:51:27;;;;;;;17.58;7.85;;;;;;;4.20;100.00;98724.28;4475637;32;20088;-70
2022/12/06 05:53:54;;;;;;;16.92;7.53;;;;;;;4.20;100.00;98732.88;4477197;31;20168;-70
2022/12/06 05:56:22;;;;;;;14.98;7.85;;;;;;;4.22;100.00;98717.22;4475338;31;20134;-70
2022/12/06 05:58:49;;;;;;;17.12;8.50;;;;;;;4.18;100.00;98720.94;4476369;32;20112;-70
2022/12/06 06:01:16;;;;;;;17.17;7.97;;;;;;;4.13;100.00;98723.00;4474925;32;20647;-70
2022/12/06 06:03:43;;;;;;;15.18;7.22;;;;;;;4.10;100.00;98724.03;4476512;32;20131;-70
2022/12/06 06:06:14;;;;;;;13.32;6.62;;;;;;;4.08;100.00;98726.72;4482151;31;20114;-72
2022/12/06 06:08:41;;;;;;;14.02;6.40;;;;;;;4.08;100.00;98720.69;4479388;31;20124;-72
2022/12/06 06:11:08;;;;;;;13.30;6.47;;;;;;;4.09;100.00;98710.25;4473428;31;20127;-73
2022/12/06 06:13:35;;;;;;;13.15;6.70;;;;;;;4.17;100.00;98704.56;4475165;32;20104;-72
2022/12/06 06:16:03;;;;;;;13.50;6.45;;;;;;;4.18;100.00;98705.37;4472514;32;20172;-72
2022/12/06 06:18:30;;;;;;;11.45;5.43;;;;;;;4.11;100.00;98689.41;4480793;32;20134;-72
2022/12/06 06:20:58;;;;;;;11.68;5.82;;;;;;;4.03;100.00;98689.87;4477724;32;20526;-72
2022/12/06 06:23:27;;;;;;;13.65;5.93;;;;;;;4.07;100.00;98703.47;4477224;32;20108;-72
2022/12/06 06:25:54;;;;;;;11.65;5.03;;;;;;;4.09;100.00;98693.88;4478031;32;20085;-72
2022/12/06 06:28:22;;;;;;;10.82;5.87;;;;;;;4.04;100.00;98683.78;4477128;31;20122;-72
2022/12/06 06:30:49;;;;;;;13.25;6.47;;;;;;;3.99;100.00;98672.88;4469875;32;20694;-73
2022/12/06 06:33:16;;;;;;;13.77;6.68;;;;;;;4.00;100.00;98671.94;4475611;32;20164;-70
2022/12/06 06:35:43;;;;;;;11.70;6.00;;;;;;;4.05;100.00;98672.47;4478594;31;20488;-70
2022/12/06 06:38:11;;;;;;;16.02;6.78;;;;;;;3.97;100.00;98677.31;4478521;32;20104;-70
2022/12/06 06:40:39;;;;;;;13.75;6.32;;;;;;;3.96;100.00;98683.44;4473100;32;20130;-72
2022/12/06 06:43:19;;;;;;;12.00;6.53;;;;;;;3.93;100.00;98683.63;4477565;32;20458;-73
2022/12/06 06:45:57;;;;;;;13.43;6.60;;;;;;;3.94;100.00;98684.44;4476513;32;20120;-72
2022/12/06 06:48:25;;;;;;;16.75;7.18;;;;;;;4.00;100.00;98682.31;4481591;32;21608;-72
2022/12/06 06:50:53;;;;;;;27.65;6.87;;;;;;;3.98;100.00;98676.41;4470696;32;20096;-72
2022/12/06 06:53:26;;;;;;;37.45;7.72;;;;;;;3.90;100.00;98687.22;4476582;32;20481;-73
2022/12/06 06:55:54;;;;;;;27.70;7.75;;;;;;;3.89;100.00;98680.41;4467795;32;20497;-73
2022/12/06 06:58:21;;;;;;;11.63;6.10;;;;;;;3.86;100.00;98659.00;4471306;32;20149;-73
2022/12/06 07:00:53;;;;;;;10.52;5.15;;;;;;;3.82;100.00;98658.38;4476186;32;20114;-73
2022/12/06 07:03:22;;;;;;;9.30;4.85;;;;;;;3.77;100.00;98649.25;4470366;32;20135;-74
2022/12/06 07:05:58;;;;;;;16.55;6.75;;;;;;;3.68;100.00;98658.41;4474165;32;20167;-73
2022/12/06 07:08:26;;;;;;;32.03;9.60;;;;;;;3.77;100.00;98657.00;4462234;32;20096;-72
2022/12/06 07:10:54;;;;;;;48.63;14.55;;;;;;;3.57;100.00;98648.72;4469553;32;20449;-72
2022/12/06 07:13:23;;;;;;;50.65;17.35;;;;;;;3.59;100.00;98659.00;4471462;31;20493;-72
2022/12/06 07:15:51;;;;;;;10.60;4.93;;;;;;;3.67;100.00;98651.59;4472272;32;20149;-72
2022/12/06 07:18:18;;;;;;;13.98;5.10;;;;;;;3.62;100.00;98670.00;4479727;32;20092;-73
2022/12/06 07:20:46;;;;;;;9.73;4.30;;;;;;;3.60;100.00;98682.22;4480730;32;20091;-73
2022/12/06 07:23:14;;;;;;;9.60;4.90;;;;;;;3.62;100.00;98672.59;4481356;31;20180;-73
2022/12/06 07:25:41;;;;;;;7.57;4.00;;;;;;;3.68;100.00;98668.78;4481444;31;20105;-76
2022/12/06 07:28:08;;;;;;;6.10;3.22;;;;;;;3.71;100.00;98674.63;4480652;31;20172;-76
2022/12/06 07:30:36;;;;;;;5.40;3.53;;;;;;;3.68;100.00;98667.03;4476624;32;20115;-77
2022/12/06 07:33:03;;;;;;;6.12;3.80;;;;;;;3.59;100.00;98662.44;4467897;32;20473;-77
2022/12/06 07:35:30;;;;;;;8.70;3.35;;;;;;;3.55;100.00;98666.13;4476186;32;20155;-76
2022/12/06 07:38:18;;;;;;;5.15;2.75;;;;;;;3.54;100.00;98674.81;4483911;31;20123;-77
2022/12/06 07:40:45;;;;;;;7.90;2.47;;;;;;;3.43;100.00;98683.25;4484881;31;20524;-76
2022/12/06 07:46:18;;;;;;;4.32;1.67;;;;;;;3.32;100.00;98686.50;4482069;31;20528;-74
2022/12/06 07:48:45;;;;;;;4.87;2.28;;;;;;;3.33;100.00;98693.34;4470622;32;20491;-74
2022/12/06 07:51:12;;;;;;;3.53;1.70;;;;;;;3.29;100.00;98686.69;4473726;32;20092;-74
2022/12/06 07:53:39;;;;;;;4.00;2.10;;;;;;;3.24;100.00;98687.88;4476075;32;20129;-75
2022/12/06 07:56:07;;;;;;;3.42;1.85;;;;;;;3.23;100.00;98686.25;4477276;31;20096;-74
2022/12/06 07:58:35;;;;;;;3.85;1.77;;;;;;;3.22;100.00;98690.56;4480137;32;20105;-74
2022/12/06 08:01:03;;;;;;;3.65;1.85;;;;;;;3.15;100.00;98684.94;4479609;31;20097;-72
2022/12/06 08:03:30;;;;;;;3.70;1.70;;;;;;;3.12;100.00;98674.78;4480982;32;20112;-69
2022/12/06 08:05:58;;;;;;;4.57;2.08;;;;;;;3.13;100.00;98684.19;4467578;32;20101;-71
2022/12/06 08:08:25;;;;;;;3.47;1.98;;;;;;;3.19;100.00;98690.75;4478914;31;20134;-71
2022/12/06 08:10:59;;;;;;;4.05;1.65;;;;;;;3.16;100.00;98696.97;4476235;32;20127;-75
2022/12/06 08:13:27;;;;;;;2.80;1.85;;;;;;;3.09;100.00;98702.56;4481354;32;20434;-72
2022/12/06 08:15:54;;;;;;;2.58;1.50;;;;;;;3.05;100.00;98701.12;4477091;32;20124;-72
2022/12/06 08:18:22;;;;;;;4.40;1.73;;;;;;;3.03;100.00;98706.37;4482448;32;20815;-72
2022/12/06 08:20:49;;;;;;;2.78;1.42;;;;;;;2.97;100.00;98707.56;4478339;31;20100;-71
2022/12/06 08:23:17;;;;;;;4.55;1.87;;;;;;;2.97;100.00;98694.62;4480349;31;20187;-71
2022/12/06 08:25:44;;;;;;;3.92;1.67;;;;;;;3.12;100.00;98697.22;4481167;31;20097;-71
2022/12/06 08:28:11;;;;;;;6.05;2.83;;;;;;;3.22;100.00;98687.16;4482874;31;20122;-72
2022/12/06 08:30:39;;;;;;;3.83;1.87;;;;;;;3.37;100.00;98686.22;4482567;31;20095;-71
2022/12/06 08:33:06;;;;;;;2.67;1.58;;;;;;;3.55;100.00;98692.03;4472749;31;20108;-69
2022/12/06 08:35:36;;;;;;;2.95;1.80;;;;;;;3.60;100.00;98696.94;4479289;31;20155;-71
2022/12/06 08:38:03;;;;;;;6.55;2.05;;;;;;;3.60;100.00;98697.75;4483310;31;20089;-70
2022/12/06 08:40:31;;;;;;;4.07;2.10;;;;;;;3.65;100.00;98698.31;4483476;31;20151;-71
2022/12/06 08:42:58;;;;;;;2.45;1.65;;;;;;;3.48;100.00;98704.53;4478023;31;20147;-71
2022/12/06 08:45:25;;;;;;;7.03;2.22;;;;;;;3.47;100.00;98710.63;4476336;32;20109;-71
2022/12/06 08:47:52;;;;;;;5.50;1.80;;;;;;;3.47;100.00;98718.41;4474912;31;20199;-71
2022/12/06 08:50:19;;;;;;;3.08;2.00;;;;;;;3.46;100.00;98718.50;4476453;32;20115;-71
2022/12/06 08:52:46;;;;;;;3.30;1.98;;;;;;;3.44;100.00;98710.81;4476500;32;20104;-70
2022/12/06 08:55:13;;;;;;;4.10;2.42;;;;;;;3.48;100.00;98716.62;4478070;31;20131;-67
2022/12/06 08:57:41;;;;;;;4.72;2.10;;;;;;;3.64;100.00;98707.00;4483185;31;20100;-68
2022/12/06 09:00:09;;;;;;;3.50;2.17;;;;;;;3.77;100.00;98701.91;4483146;31;20396;-70
2022/12/06 09:02:39;;;;;;;3.50;2.12;;;;;;;3.85;100.00;98694.47;4481499;32;20097;-69
2022/12/06 09:05:07;;;;;;;3.08;2.00;;;;;;;3.91;100.00;98691.50;4482068;32;20140;-69
2022/12/06 09:07:35;;;;;;;3.50;1.98;;;;;;;3.98;100.00;98694.53;4483222;31;20092;-69
2022/12/06 09:10:04;;;;;;;3.15;1.92;;;;;;;4.11;100.00;98699.78;4473151;32;20108;-70
2022/12/06 09:12:31;;;;;;;3.83;2.10;;;;;;;4.27;100.00;98697.03;4482918;31;20168;-70
2022/12/06 09:14:58;;;;;;;4.82;2.65;;;;;;;4.28;100.00;98698.69;4482468;31;20104;-70
2022/12/06 09:17:25;;;;;;;2.62;1.73;;;;;;;4.34;100.00;98695.69;4483163;31;20123;-69
2022/12/06 09:19:52;;;;;;;3.35;2.28;;;;;;;4.51;100.00;98696.34;4483100;31;20790;-70
2022/12/06 09:22:19;;;;;;;3.40;1.48;;;;;;;4.66;100.00;98695.34;4482584;32;20657;-70
2022/12/06 09:24:47;;;;;;;5.03;2.17;;;;;;;4.59;100.00;98705.31;4483346;31;20508;-68
2022/12/06 09:27:15;;;;;;;3.28;1.95;;;;;;;4.70;100.00;98709.78;4481665;31;20121;-70
2022/12/06 09:29:42;;;;;;;4.65;2.25;;;;;;;4.86;100.00;98711.34;4481340;31;20100;-71
2022/12/06 09:32:09;;;;;;;3.90;2.30;;;;;;;4.78;100.00;98707.53;4482535;31;20195;-71
2022/12/06 09:34:36;;;;;;;3.65;2.22;;;;;;;4.73;100.00;98712.16;4482014;32;20127;-71
2022/12/06 09:37:07;;;;;;;2.33;1.60;;;;;;;4.70;100.00;98707.19;4481766;31;20164;-69
2022/12/06 09:39:44;;;;;;;2.85;1.80;;;;;;;4.68;100.00;98709.06;4470017;32;20134;-69
2022/12/06 09:42:23;;;;;;;3.00;1.70;;;;;;;4.62;100.00;98710.28;4478743;31;20135;-72
2022/12/06 09:45:28;;;;;;;2.75;1.70;;;;;;;4.53;100.00;98708.31;4479486;32;20164;-71
2022/12/06 09:48:23;;;;;;;3.53;1.67;;;;;;;4.49;100.00;98708.59;4479758;31;20103;-71
2022/12/06 09:51:15;;;;;;;2.40;1.45;;;;;;;4.54;100.00;98702.19;4480765;31;20209;-71
2022/12/06 09:53:51;;;;;;;2.40;1.35;;;;;;;4.92;100.00;98696.22;4481140;31;20517;-71
2022/12/06 09:56:33;;;;;;;2.30;1.08;;;;;;;5.09;100.00;98697.66;4481144;31;20092;-71
2022/12/06 09:59:09;;;;;;;2.03;1.20;;;;;;;4.94;100.00;98689.16;4478868;32;20998;-71
2022/12/06 10:02:01;;;;;;;5.45;1.05;;;;;;;4.94;100.00;98693.53;4478362;31;20171;-71
2022/12/06 10:05:30;;;;;;;1.05;0.95;;;;;;;4.91;100.00;98680.75;4474300;32;20525;-72
2022/12/06 10:08:24;;;;;;;1.95;1.35;;;;;;;5.06;100.00;98684.06;4426017;32;20150;-72
2022/12/06 10:10:59;;;;;;;;;;;;;;;4.99;100.00;98683.63;4434236;32;20148;-72
2022/12/06 10:14:12;;;;;;;1.70;1.30;;;;;;;4.87;100.00;98681.87;4420220;32;19992;-72
2022/12/06 10:17:04;;;;;;;2.50;1.40;;;;;;;4.74;100.00;98684.44;4415294;32;20553;-74
2022/12/06 10:19:49;;;;;;;1.55;1.27;;;;;;;4.59;100.00;98674.16;4430899;32;20608;-74
2022/12/06 10:22:39;;;;;;;2.28;1.48;;;;;;;4.59;100.00;98668.97;4430455;32;20117;-74
2022/12/06 10:25:06;;;;;;;2.33;1.55;;;;;;;4.66;100.00;98669.38;4432743;32;20124;-74
2022/12/06 10:27:49;;;;;;;4.35;2.05;;;;;;;4.87;100.00;98658.50;4432819;32;20191;-74
2022/12/06 10:30:16;;;;;;;3.70;2.10;;;;;;;4.98;100.00;98664.66;4431760;32;20455;-73
2022/12/06 10:32:53;;;;;;;3.33;1.95;;;;;;;5.38;100.00;98655.88;4420663;32;20239;-74
2022/12/06 10:35:41;;;;;;;2.97;2.00;;;;;;;5.68;100.00;98652.06;4418885;32;20239;-73
2022/12/06 10:38:15;;;;;;;3.05;1.80;;;;;;;5.67;100.00;98663.38;4415257;32;20128;-73
2022/12/06 10:40:50;;;;;;;2.63;1.97;;;;;;;5.53;100.00;98663.53;4429415;32;20116;-72
2022/12/06 10:43:35;;;;;;;3.08;1.98;;;;;;;5.59;100.00;98658.75;4458783;32;20087;-73
2022/12/06 10:48:59;;;;;;;3.03;2.10;;;;;;;5.57;100.00;98664.97;4478794;32;20171;-72
2022/12/06 10:51:39;;;;;;;3.15;1.98;;;;;;;5.74;100.00;98651.63;4475736;31;20092;-73
2022/12/06 10:54:19;;;;;;;3.20;1.95;;;;;;;5.72;100.00;98655.28;4479271;32;20100;-72
2022/12/06 10:56:48;;;;;;;4.43;1.98;;;;;;;5.74;100.00;98661.19;4471187;32;20147;-73
2022/12/06 10:59:53;;;;;;;3.35;2.08;;;;;;;5.78;100.00;98655.66;4476364;32;20127;-71
2022/12/06 11:02:59;;;;;;;2.53;1.70;;;;;;;5.64;100.00;98651.44;4478567;31;20583;-70
2022/12/06 11:05:51;;;;;;;2.85;1.87;;;;;;;5.75;100.00;98639.44;4480949;32;20131;-71
2022/12/06 11:08:24;;;;;;;2.22;1.52;;;;;;;5.68;100.00;98646.88;4478961;31;20518;-71
2022/12/06 11:10:53;;;;;;;2.03;1.45;;;;;;;5.35;100.00;98634.50;4472869;32;20138;-70
2022/12/06 11:13:51;;;;;;;2.72;1.30;;;;;;;5.20;100.00;98634.59;4483695;32;20107;-70
2022/12/06 11:16:39;;;;;;;2.03;1.23;;;;;;;5.26;100.00;98628.16;4482524;32;20147;-70
2022/12/06 11:19:26;;;;;;;1.35;0.88;;;;;;;5.36;100.00;98621.41;4476990;32;20118;-70
2022/12/06 11:22:15;;;;;;;2.60;1.20;;;;;;;5.32;100.00;98615.56;4478619;32;20152;-70
2022/12/06 11:25:08;;;;;;;2.03;1.33;;;;;;;5.32;100.00;98619.94;4481848;32;20487;-70
2022/12/06 11:27:44;;;;;;;3.42;1.27;;;;;;;5.14;100.00;98624.66;4478984;32;20112;-71
2022/12/06 11:30:14;;;;;;;1.50;0.88;;;;;;;5.20;100.00;98621.63;4476648;32;20559;-70
2022/12/06 11:32:48;;;;;;;1.67;1.27;;;;;;;5.08;100.00;98618.09;4474885;32;20111;-70
2022/12/06 11:35:20;;;;;;;1.17;0.90;;;;;;;5.12;100.00;98623.94;4482988;31;20167;-70
2022/12/06 11:37:51;;;;;;;2.22;1.35;;;;;;;4.85;100.00;98621.47;4484801;31;20112;-71
2022/12/06 11:40:44;;;;;;;1.52;0.85;;;;;;;4.55;100.00;98609.62;4483174;32;20100;-72
2022/12/06 11:43:17;;;;;;;3.20;1.30;;;;;;;4.52;100.00;98620.19;4483861;31;20130;-74
2022/12/06 11:45:45;;;;;;;1.45;1.08;;;;;;;4.65;100.00;98615.00;4477036;31;20126;-72
2022/12/06 11:48:24;;;;;;;0.98;0.88;;;;;;;4.75;100.00;98616.91;4474656;32;20211;-72
2022/12/06 11:50:52;;;;;;;2.28;1.10;;;;;;;4.72;100.00;98621.44;4478072;32;20100;-72
2022/12/06 11:53:26;;;;;;;1.80;1.25;;;;;;;4.75;100.00;98624.69;4484406;31;20092;-72
2022/12/06 11:55:57;;;;;;;1.62;0.98;;;;;;;4.90;100.00;98615.00;4480519;31;20096;-71
2022/12/06 11:58:28;;;;;;;2.35;1.42;;;;;;;4.96;100.00;98624.16;4479113;32;20164;-71
2022/12/06 12:01:04;;;;;;;3.30;1.02;;;;;;;5.11;100.00;98620.50;4477311;31;20127;-71
2022/12/06 12:03:34;;;;;;;1.67;1.30;;;;;;;5.17;100.00;98634.00;4469936;31;20603;-71
2022/12/06 12:06:21;;;;;;;1.37;1.02;;;;;;;5.20;100.00;98621.63;4477597;32;20079;-71
2022/12/06 12:08:51;;;;;;;1.80;1.23;;;;;;;5.25;100.00;98626.50;4476746;32;20104;-71
2022/12/06 12:11:20;;;;;;;1.75;1.33;;;;;;;5.44;100.00;98613.06;4477776;31;20134;-69
2022/12/06 12:13:51;;;;;;;1.85;1.08;;;;;;;5.67;100.00;98612.22;4474265;32;20122;-70